Time,TemperatureF,DewpointF,PressureIn,WindDirection,WindDirectionDegrees,WindSpeedMPH,WindSpeedGustMPH,Humidity,HourlyPrecipIn,Conditions,Clouds,dailyrainin,SolarRadiationWatts/m^2,SoftwareType,DateUTC
2013-01-11 00:00:00,41.0,36.5,30.20,WSW,248,0.0,0.0,84,0.00,CLR,,0.00,0.0,WeatherDisplay:10.37,2013-01-11 08:00:00,
2013-01-11 00:06:00,40.8,36.1,30.19,WSW,248,0.0,0.0,83,0.00,CLR,,0.00,0.0,WeatherDisplay:10.37,2013-01-11 08:06:00,
2013-01-11 00:11:00,40.8,36.1,30.19,WSW,248,0.0,0.0,83,0.00,CLR,,0.00,0.0,WeatherDisplay:10.37,2013-01-11 08:11:00,
2013-01-11 00:16:00,40.8,36.4,30.19,WSW,248,0.0,0.0,84,0.00,CLR,,0.00,0.0,WeatherDisplay:10.37,2013-01-11 08:16:00,
2013-01-11 00:21:00,40.6,36.2,30.19,WSW,248,0.0,0.0,84,0.00,CLR,,0.00,0.0,WeatherDisplay:10.37,2013-01-11 08:21:00,
2013-01-11 00:26:00,40.5,36.0,30.20,WSW,248,0.0,0.0,84,0.00,CLR,,0.00,0.0,WeatherDisplay:10.37,2013-01-11 08:26:00,
2013-01-11 00:31:00,40.5,36.3,30.20,WSW,248,0.0,0.0,85,0.00,CLR,,0.00,0.0,WeatherDisplay:10.37,2013-01-11 08:31:00,
2013-01-11 00:36:00,40.5,36.3,30.20,WSW,248,0.0,0.0,85,0.00,CLR,,0.00,0.0,WeatherDisplay:10.37,2013-01-11 08:36:00,
2013-01-11 00:41:00,40.3,35.8,30.20,WSW,248,0.0,0.0,84,0.00,CLR,,0.00,0.0,WeatherDisplay:10.37,2013-01-11 08:41:00,
2013-01-11 00:46:00,40.1,35.7,30.20,WSW,248,0.0,0.0,84,0.00,CLR,,0.00,0.0,WeatherDisplay:10.37,2013-01-11 08:46:00,
2013-01-11 00:51:00,40.1,36.0,30.20,WSW,248,0.0,0.0,85,0.00,CLR,,0.00,0.0,WeatherDisplay:10.37,2013-01-11 08:51:00,
2013-01-11 00:56:00,39.9,35.8,30.20,WSW,248,0.0,0.0,85,0.00,CLR,,0.00,0.0,WeatherDisplay:10.37,2013-01-11 08:56:00,
2013-01-11 01:02:00,39.9,35.5,30.20,WSW,248,0.0,0.0,84,0.00,CLR,,0.00,0.0,WeatherDisplay:10.37,2013-01-11 09:02:00,
2013-01-11 01:07:00,39.7,35.6,30.19,WSW,248,0.0,0.0,85,0.00,CLR,,0.00,0.0,WeatherDisplay:10.37,2013-01-11 09:07:00,
2013-01-11 01:12:00,39.7,35.6,30.19,WSW,248,0.0,0.0,85,0.00,CLR,,0.00,0.0,WeatherDisplay:10.37,2013-01-11 09:12:00,
2013-01-11 01:17:00,39.7,35.6,30.19,WSW,248,0.0,0.0,85,0.00,CLR,,0.00,0.0,WeatherDisplay:10.37,2013-01-11 09:17:00,
2013-01-11 01:22:00,39.4,35.2,30.19,WSW,248,0.0,0.0,85,0.00,CLR,,0.00,0.0,WeatherDisplay:10.37,2013-01-11 09:22:00,
2013-01-11 01:27:00,39.2,35.1,30.20,WSW,248,0.0,0.0,85,0.00,CLR,,0.00,0.0,WeatherDisplay:10.37,2013-01-11 09:27:00,
2013-01-11 01:32:00,39.2,35.1,30.20,WSW,248,0.0,0.0,85,0.00,CLR,,0.00,0.0,WeatherDisplay:10.37,2013-01-11 09:32:00,
2013-01-11 01:37:00,39.2,35.1,30.20,WSW,248,0.0,0.0,85,0.00,CLR,,0.00,0.0,WeatherDisplay:10.37,2013-01-11 09:37:00,
2013-01-11 01:43:00,39.0,34.9,30.20,WSW,248,0.0,0.0,85,0.00,CLR,,0.00,0.0,WeatherDisplay:10.37,2013-01-11 09:43:00,
2013-01-11 01:48:00,39.0,34.9,30.19,WSW,248,0.0,0.0,85,0.00,CLR,,0.00,0.0,WeatherDisplay:10.37,2013-01-11 09:48:00,
2013-01-11 01:53:00,39.0,34.9,30.19,WSW,248,0.0,0.0,85,0.00,CLR,,0.00,0.0,WeatherDisplay:10.37,2013-01-11 09:53:00,
2013-01-11 01:58:00,39.0,34.9,30.19,WSW,248,0.0,0.0,85,0.00,CLR,,0.00,0.0,WeatherDisplay:10.37,2013-01-11 09:58:00,
2013-01-11 02:03:00,38.8,34.7,30.19,WSW,248,0.0,0.0,85,0.00,CLR,,0.00,0.0,WeatherDisplay:10.37,2013-01-11 10:03:00,
2013-01-11 02:08:00,38.7,34.5,30.19,WSW,248,0.0,0.0,85,0.00,CLR,,0.00,0.0,WeatherDisplay:10.37,2013-01-11 10:08:00,
2013-01-11 02:13:00,38.7,34.5,30.19,WSW,248,0.0,0.0,85,0.00,CLR,,0.00,0.0,WeatherDisplay:10.37,2013-01-11 10:13:00,
2013-01-11 02:18:00,38.7,34.5,30.19,WSW,248,0.0,0.0,85,0.00,CLR,,0.00,0.0,WeatherDisplay:10.37,2013-01-11 10:18:00,
2013-01-11 02:23:00,38.3,34.2,30.19,WSW,248,0.0,0.0,85,0.00,CLR,,0.00,0.0,WeatherDisplay:10.37,2013-01-11 10:23:00,
2013-01-11 02:29:00,38.3,34.2,30.19,WSW,248,0.0,0.0,85,0.00,CLR,,0.00,0.0,WeatherDisplay:10.37,2013-01-11 10:29:00,
2013-01-11 02:34:00,38.3,34.2,30.19,WSW,248,0.0,0.0,85,0.00,CLR,,0.00,0.0,WeatherDisplay:10.37,2013-01-11 10:34:00,
2013-01-11 02:39:00,38.3,34.5,30.19,WSW,248,0.0,0.0,86,0.00,CLR,,0.00,0.0,WeatherDisplay:10.37,2013-01-11 10:39:00,
2013-01-11 02:44:00,38.3,34.5,30.19,WSW,248,0.0,0.0,86,0.00,CLR,,0.00,0.0,WeatherDisplay:10.37,2013-01-11 10:44:00,
2013-01-11 02:49:00,38.3,34.5,30.19,WSW,248,0.0,0.0,86,0.00,CLR,,0.00,0.0,WeatherDisplay:10.37,2013-01-11 10:49:00,
2013-01-11 02:54:00,38.1,34.3,30.19,WSW,248,0.0,0.0,86,0.00,CLR,,0.00,0.0,WeatherDisplay:10.37,2013-01-11 10:54:00,
2013-01-11 02:59:00,37.9,33.8,30.19,WSW,248,0.0,0.0,85,0.00,CLR,,0.00,0.0,WeatherDisplay:10.37,2013-01-11 10:59:00,
2013-01-11 03:04:00,37.9,33.8,30.19,WSW,248,0.0,0.0,85,0.00,CLR,,0.00,0.0,WeatherDisplay:10.37,2013-01-11 11:04:00,
2013-01-11 03:10:00,37.9,33.8,30.19,WSW,248,0.0,0.0,85,0.00,CLR,,0.00,0.0,WeatherDisplay:10.37,2013-01-11 11:10:00,
2013-01-11 03:15:00,37.9,34.1,30.19,WSW,248,0.0,0.0,86,0.00,CLR,,0.00,0.0,WeatherDisplay:10.37,2013-01-11 11:15:00,
2013-01-11 03:20:00,37.6,33.5,30.19,WSW,248,0.0,0.0,85,0.00,CLR,,0.00,0.0,WeatherDisplay:10.37,2013-01-11 11:20:00,
2013-01-11 03:25:00,37.4,33.3,30.18,WSW,248,0.0,0.0,85,0.00,CLR,,0.00,0.0,WeatherDisplay:10.37,2013-01-11 11:25:00,
2013-01-11 03:31:00,37.4,33.6,30.18,WSW,248,0.0,0.0,86,0.00,CLR,,0.00,0.0,WeatherDisplay:10.37,2013-01-11 11:31:00,
2013-01-11 03:36:00,37.4,33.6,30.18,WSW,248,0.0,0.0,86,0.00,CLR,,0.00,0.0,WeatherDisplay:10.37,2013-01-11 11:36:00,
2013-01-11 03:41:00,37.4,33.3,30.18,WSW,248,0.0,0.0,85,0.00,CLR,,0.00,0.0,WeatherDisplay:10.37,2013-01-11 11:41:00,
2013-01-11 03:46:00,37.4,33.3,30.19,WSW,248,0.0,0.0,85,0.00,CLR,,0.00,0.0,WeatherDisplay:10.37,2013-01-11 11:46:00,
2013-01-11 03:51:00,37.2,33.4,30.19,WSW,248,0.0,0.0,86,0.00,CLR,,0.00,0.0,WeatherDisplay:10.37,2013-01-11 11:51:00,
2013-01-11 03:56:00,37.2,33.4,30.19,WSW,248,0.0,0.0,86,0.00,CLR,,0.00,0.0,WeatherDisplay:10.37,2013-01-11 11:56:00,
2013-01-11 04:01:00,37.0,33.2,30.19,WSW,248,0.0,0.0,86,0.00,CLR,,0.00,0.0,WeatherDisplay:10.37,2013-01-11 12:01:00,
2013-01-11 04:07:00,37.0,33.2,30.19,WSW,248,0.0,0.0,86,0.00,CLR,,0.00,0.0,WeatherDisplay:10.37,2013-01-11 12:07:00,
2013-01-11 04:12:00,37.0,33.2,30.19,WSW,248,0.0,0.0,86,0.00,CLR,,0.00,0.0,WeatherDisplay:10.37,2013-01-11 12:12:00,
2013-01-11 04:17:00,37.2,33.4,30.19,WSW,248,0.0,0.0,86,0.00,CLR,,0.00,0.0,WeatherDisplay:10.37,2013-01-11 12:17:00,
2013-01-11 04:23:00,37.0,33.2,30.19,WSW,248,0.0,0.0,86,0.00,CLR,,0.00,0.0,WeatherDisplay:10.37,2013-01-11 12:23:00,
2013-01-11 04:28:00,36.9,33.1,30.18,WSW,248,0.0,0.0,86,0.00,CLR,,0.00,0.0,WeatherDisplay:10.37,2013-01-11 12:28:00,
2013-01-11 04:33:00,36.9,33.1,30.18,WSW,248,0.0,0.0,86,0.00,CLR,,0.00,0.0,WeatherDisplay:10.37,2013-01-11 12:33:00,
2013-01-11 04:38:00,37.0,33.2,30.18,WSW,248,0.0,0.0,86,0.00,CLR,,0.00,0.0,WeatherDisplay:10.37,2013-01-11 12:38:00,
2013-01-11 04:43:00,36.9,33.1,30.18,WSW,248,0.0,0.0,86,0.00,CLR,,0.00,0.0,WeatherDisplay:10.37,2013-01-11 12:43:00,
2013-01-11 04:48:00,36.9,33.1,30.18,WSW,248,0.0,0.0,86,0.00,CLR,,0.00,0.0,WeatherDisplay:10.37,2013-01-11 12:48:00,
2013-01-11 04:53:00,36.9,33.4,30.18,WSW,248,0.0,0.0,87,0.00,CLR,,0.00,0.0,WeatherDisplay:10.37,2013-01-11 12:53:00,
2013-01-11 04:58:00,36.9,33.1,30.18,WSW,248,0.0,0.0,86,0.00,CLR,,0.00,0.0,WeatherDisplay:10.37,2013-01-11 12:58:00,
2013-01-11 05:04:00,36.9,33.1,30.18,WSW,248,0.0,0.0,86,0.00,CLR,,0.00,0.0,WeatherDisplay:10.37,2013-01-11 13:04:00,
2013-01-11 05:09:00,36.9,33.1,30.19,WSW,248,0.0,0.0,86,0.00,CLR,,0.00,0.0,WeatherDisplay:10.37,2013-01-11 13:09:00,
2013-01-11 05:14:00,36.7,32.9,30.19,WSW,248,0.0,0.0,86,0.00,CLR,,0.00,0.0,WeatherDisplay:10.37,2013-01-11 13:14:00,
2013-01-11 05:19:00,36.7,32.9,30.19,WSW,248,0.0,0.0,86,0.00,CLR,,0.00,0.0,WeatherDisplay:10.37,2013-01-11 13:19:00,
2013-01-11 05:24:00,36.7,32.9,30.19,WSW,248,0.0,0.0,86,0.00,CLR,,0.00,0.0,WeatherDisplay:10.37,2013-01-11 13:24:00,
2013-01-11 05:29:00,36.7,33.2,30.19,WSW,248,0.0,0.0,87,0.00,CLR,,0.00,0.0,WeatherDisplay:10.37,2013-01-11 13:29:00,
2013-01-11 05:35:00,36.9,33.4,30.19,WSW,248,0.0,0.0,87,0.00,CLR,,0.00,0.0,WeatherDisplay:10.37,2013-01-11 13:35:00,
2013-01-11 05:40:00,36.7,33.2,30.19,WSW,248,0.0,0.0,87,0.00,CLR,,0.00,0.0,WeatherDisplay:10.37,2013-01-11 13:40:00,
2013-01-11 05:45:00,36.5,32.7,30.19,WSW,248,0.0,0.0,86,0.00,CLR,,0.00,0.0,WeatherDisplay:10.37,2013-01-11 13:45:00,
2013-01-11 05:50:00,36.5,32.7,30.20,WSW,248,0.0,0.0,86,0.00,CLR,,0.00,0.0,WeatherDisplay:10.37,2013-01-11 13:50:00,
2013-01-11 05:56:00,36.5,33.0,30.20,WSW,248,0.0,0.0,87,0.00,CLR,,0.00,0.0,WeatherDisplay:10.37,2013-01-11 13:56:00,
2013-01-11 06:01:00,36.3,32.5,30.20,WSW,248,0.0,0.0,86,0.00,CLR,,0.00,0.0,WeatherDisplay:10.37,2013-01-11 14:01:00,
2013-01-11 06:06:00,36.3,32.5,30.21,WSW,248,0.0,0.0,86,0.00,CLR,,0.00,0.0,WeatherDisplay:10.37,2013-01-11 14:06:00,
2013-01-11 06:11:00,36.3,32.5,30.21,WSW,248,0.0,0.0,86,0.00,CLR,,0.00,0.0,WeatherDisplay:10.37,2013-01-11 14:11:00,
2013-01-11 06:16:00,36.3,32.5,30.21,WSW,248,0.0,0.0,86,0.00,CLR,,0.00,0.0,WeatherDisplay:10.37,2013-01-11 14:16:00,
2013-01-11 06:21:00,36.1,32.4,30.21,WSW,248,0.0,0.0,86,0.00,CLR,,0.00,0.0,WeatherDisplay:10.37,2013-01-11 14:21:00,
2013-01-11 06:26:00,36.1,32.4,30.21,WSW,248,0.0,0.0,86,0.00,CLR,,0.00,0.0,WeatherDisplay:10.37,2013-01-11 14:26:00,
2013-01-11 06:32:00,36.1,32.4,30.21,WSW,248,0.0,0.0,86,0.00,CLR,,0.00,0.0,WeatherDisplay:10.37,2013-01-11 14:32:00,
2013-01-11 06:37:00,36.1,32.4,30.21,WSW,248,0.0,0.0,86,0.00,CLR,,0.00,0.0,WeatherDisplay:10.37,2013-01-11 14:37:00,
2013-01-11 06:42:00,36.1,32.4,30.21,WSW,248,0.0,0.0,86,0.00,CLR,,0.00,0.0,WeatherDisplay:10.37,2013-01-11 14:42:00,
2013-01-11 06:47:00,36.1,32.6,30.22,WSW,248,0.0,0.0,87,0.00,CLR,,0.00,0.0,WeatherDisplay:10.37,2013-01-11 14:47:00,
2013-01-11 06:52:00,36.1,32.6,30.22,WSW,248,0.0,0.0,87,0.00,CLR,,0.00,0.0,WeatherDisplay:10.37,2013-01-11 14:52:00,
2013-01-11 06:57:00,36.1,32.6,30.22,WSW,248,0.0,0.0,87,0.00,CLR,,0.00,0.0,WeatherDisplay:10.37,2013-01-11 14:57:00,
2013-01-11 07:02:00,35.8,32.0,30.22,WSW,248,0.0,0.0,86,0.00,OVC,,0.00,0.0,WeatherDisplay:10.37,2013-01-11 15:02:00,
2013-01-11 07:07:00,35.6,31.8,30.22,WSW,248,0.0,0.0,86,0.00,OVC,,0.00,0.0,WeatherDisplay:10.37,2013-01-11 15:07:00,
2013-01-11 07:12:00,35.6,32.1,30.22,WSW,248,0.0,0.0,87,0.00,OVC,,0.00,0.0,WeatherDisplay:10.37,2013-01-11 15:12:00,
2013-01-11 07:17:00,35.8,32.3,30.22,WSW,248,0.0,0.0,87,0.00,OVC,,0.00,0.0,WeatherDisplay:10.37,2013-01-11 15:17:00,
2013-01-11 07:23:00,35.6,32.1,30.22,WSW,248,0.0,0.0,87,0.00,OVC,,0.00,0.0,WeatherDisplay:10.37,2013-01-11 15:23:00,
2013-01-11 07:28:00,35.8,32.3,30.22,WSW,248,0.0,0.0,87,0.00,OVC,,0.00,0.0,WeatherDisplay:10.37,2013-01-11 15:28:00,
2013-01-11 07:33:00,35.8,32.3,30.22,WSW,248,0.0,0.0,87,0.00,OVC,,0.00,0.0,WeatherDisplay:10.37,2013-01-11 15:33:00,
2013-01-11 07:38:00,35.6,32.1,30.22,WSW,248,0.0,0.0,87,0.00,OVC,,0.00,0.0,WeatherDisplay:10.37,2013-01-11 15:38:00,
2013-01-11 07:43:00,35.6,32.1,30.22,WSW,248,0.0,0.0,87,0.00,OVC,,0.00,0.0,WeatherDisplay:10.37,2013-01-11 15:43:00,
2013-01-11 07:48:00,35.8,32.3,30.23,WSW,248,0.0,0.0,87,0.00,OVC,,0.00,0.0,WeatherDisplay:10.37,2013-01-11 15:48:00,
2013-01-11 07:53:00,36.1,32.9,30.23,WSW,248,0.0,0.0,88,0.00,OVC,,0.00,0.0,WeatherDisplay:10.37,2013-01-11 15:53:00,
2013-01-11 07:58:00,36.1,32.9,30.23,WSW,248,0.0,0.0,88,0.00,OVC,,0.00,0.0,WeatherDisplay:10.37,2013-01-11 15:58:00,
2013-01-11 08:04:00,36.0,32.8,30.23,WSW,248,0.0,0.0,88,0.00,OVC,,0.00,0.0,WeatherDisplay:10.37,2013-01-11 16:04:00,
2013-01-11 08:09:00,36.3,33.1,30.23,WSW,248,0.0,0.0,88,0.00,OVC,,0.00,0.0,WeatherDisplay:10.37,2013-01-11 16:09:00,
2013-01-11 08:14:00,36.3,33.1,30.23,WSW,248,0.0,0.0,88,0.00,OVC,,0.00,0.0,WeatherDisplay:10.37,2013-01-11 16:14:00,
2013-01-11 08:19:00,36.5,33.3,30.23,WSW,248,0.0,0.0,88,0.00,OVC,,0.00,0.0,WeatherDisplay:10.37,2013-01-11 16:19:00,
2013-01-11 08:24:00,36.9,33.6,30.23,WSW,248,0.0,0.0,88,0.00,OVC,,0.00,0.0,WeatherDisplay:10.37,2013-01-11 16:24:00,
2013-01-11 08:29:00,37.0,33.8,30.24,WSW,248,0.0,0.0,88,0.00,OVC,,0.00,0.0,WeatherDisplay:10.37,2013-01-11 16:29:00,
2013-01-11 08:34:00,37.2,34.0,30.24,WSW,248,0.0,0.0,88,0.00,OVC,,0.00,0.0,WeatherDisplay:10.37,2013-01-11 16:34:00,
2013-01-11 08:39:00,37.2,34.0,30.24,WSW,248,0.0,0.0,88,0.00,OVC,,0.00,0.0,WeatherDisplay:10.37,2013-01-11 16:39:00,
2013-01-11 08:44:00,37.8,34.5,30.24,WSW,248,0.0,0.0,88,0.00,OVC,,0.00,0.0,WeatherDisplay:10.37,2013-01-11 16:44:00,
2013-01-11 08:49:00,38.3,35.1,30.25,WSW,248,0.0,0.0,88,0.00,OVC,,0.00,0.0,WeatherDisplay:10.37,2013-01-11 16:49:00,
2013-01-11 08:55:00,38.5,35.2,30.25,WSW,248,0.0,0.0,88,0.00,OVC,,0.00,0.0,WeatherDisplay:10.37,2013-01-11 16:55:00,
2013-01-11 09:00:00,39.0,35.8,30.25,WSW,248,0.0,0.0,88,0.00,OVC,,0.00,0.0,WeatherDisplay:10.37,2013-01-11 17:00:00,
2013-01-11 09:05:00,39.0,35.8,30.25,WSW,248,0.0,0.0,88,0.00,OVC,,0.00,0.0,WeatherDisplay:10.37,2013-01-11 17:05:00,
2013-01-11 09:10:00,39.4,36.4,30.25,WSW,248,0.0,0.0,89,0.00,OVC,,0.00,0.0,WeatherDisplay:10.37,2013-01-11 17:10:00,
2013-01-11 09:15:00,39.7,36.5,30.25,WSW,248,0.0,0.0,88,0.00,OVC,,0.00,0.0,WeatherDisplay:10.37,2013-01-11 17:15:00,
2013-01-11 09:20:00,40.1,36.8,30.25,WSW,248,0.0,0.0,88,0.00,OVC,,0.00,0.0,WeatherDisplay:10.37,2013-01-11 17:20:00,
2013-01-11 09:26:00,40.8,37.8,30.25,WSW,248,0.0,0.0,89,0.00,OVC,,0.00,0.0,WeatherDisplay:10.37,2013-01-11 17:26:00,
2013-01-11 09:31:00,41.5,38.5,30.25,WSW,248,0.0,0.0,89,0.00,OVC,,0.00,0.0,WeatherDisplay:10.37,2013-01-11 17:31:00,
2013-01-11 09:36:00,42.1,38.8,30.25,WSW,248,0.0,0.0,88,0.00,OVC,,0.00,0.0,WeatherDisplay:10.37,2013-01-11 17:36:00,
2013-01-11 09:41:00,42.6,39.0,30.25,WSW,248,0.0,0.0,87,0.00,OVC,,0.00,0.0,WeatherDisplay:10.37,2013-01-11 17:41:00,
2013-01-11 09:46:00,43.2,39.3,30.25,WSW,248,0.0,0.0,86,0.00,OVC,,0.00,0.0,WeatherDisplay:10.37,2013-01-11 17:46:00,
2013-01-11 09:51:00,43.7,39.5,30.25,WSW,248,0.0,0.0,85,0.00,OVC,,0.00,0.0,WeatherDisplay:10.37,2013-01-11 17:51:00,
2013-01-11 09:56:00,44.1,39.5,30.25,WSW,248,0.0,0.0,84,0.00,OVC,,0.00,0.0,WeatherDisplay:10.37,2013-01-11 17:56:00,
2013-01-11 10:01:00,44.4,39.6,30.25,WSW,248,0.0,0.0,83,0.00,OVC,,0.00,0.0,WeatherDisplay:10.37,2013-01-11 18:01:00,
2013-01-11 10:06:00,44.6,39.4,30.25,WSW,248,0.0,0.0,82,0.00,OVC,,0.00,0.0,WeatherDisplay:10.37,2013-01-11 18:06:00,
2013-01-11 10:11:00,45.1,39.7,30.25,WSW,248,0.0,0.0,81,0.00,OVC,,0.00,0.0,WeatherDisplay:10.37,2013-01-11 18:11:00,
2013-01-11 10:17:00,45.5,40.0,30.25,WSW,248,0.0,0.0,81,0.00,OVC,,0.00,0.0,WeatherDisplay:10.37,2013-01-11 18:17:00,
2013-01-11 10:22:00,45.9,40.0,30.25,WSW,248,0.0,0.0,80,0.00,OVC,,0.00,0.0,WeatherDisplay:10.37,2013-01-11 18:22:00,
2013-01-11 10:27:00,45.9,40.0,30.26,WSW,248,0.0,0.0,80,0.00,OVC,,0.00,0.0,WeatherDisplay:10.37,2013-01-11 18:27:00,
2013-01-11 10:32:00,46.2,40.1,30.26,WSW,248,0.0,0.0,79,0.00,OVC,,0.00,0.0,WeatherDisplay:10.37,2013-01-11 18:32:00,
2013-01-11 10:37:00,46.4,39.9,30.26,WSW,248,0.0,0.0,78,0.00,OVC,,0.00,0.0,WeatherDisplay:10.37,2013-01-11 18:37:00,
2013-01-11 10:42:00,47.1,40.3,30.26,WSW,248,0.0,0.0,77,0.00,OVC,,0.00,0.0,WeatherDisplay:10.37,2013-01-11 18:42:00,
2013-01-11 10:47:00,47.7,40.8,30.24,WSW,248,0.0,0.0,77,0.00,OVC,,0.00,0.0,WeatherDisplay:10.37,2013-01-11 18:47:00,
2013-01-11 10:52:00,47.7,40.8,30.24,WSW,248,0.0,0.0,77,0.00,OVC,,0.00,0.0,WeatherDisplay:10.37,2013-01-11 18:52:00,
2013-01-11 10:58:00,48.4,41.2,30.24,WSW,248,0.0,0.0,76,0.00,OVC,,0.00,0.0,WeatherDisplay:10.37,2013-01-11 18:58:00,
2013-01-11 11:03:00,48.7,41.2,30.24,WSW,248,0.0,0.0,75,0.00,OVC,,0.00,0.0,WeatherDisplay:10.37,2013-01-11 19:03:00,
2013-01-11 11:08:00,49.1,41.2,30.23,WSW,248,0.0,0.0,74,0.00,OVC,,0.00,0.0,WeatherDisplay:10.37,2013-01-11 19:08:00,
2013-01-11 11:13:00,49.1,41.2,30.23,WSW,248,0.0,0.0,74,0.00,OVC,,0.00,0.0,WeatherDisplay:10.37,2013-01-11 19:13:00,
2013-01-11 11:18:00,49.5,41.5,30.23,WSW,248,0.0,0.0,74,0.00,OVC,,0.00,0.0,WeatherDisplay:10.37,2013-01-11 19:18:00,
2013-01-11 11:23:00,49.6,41.3,30.23,WSW,248,0.0,0.0,73,0.00,OVC,,0.00,0.0,WeatherDisplay:10.37,2013-01-11 19:23:00,
2013-01-11 11:28:00,50.0,41.3,30.23,WSW,248,0.0,0.0,72,0.00,OVC,,0.00,0.0,WeatherDisplay:10.37,2013-01-11 19:28:00,
2013-01-11 11:34:00,50.9,41.8,30.23,WSW,248,0.0,0.0,71,0.00,OVC,,0.00,0.0,WeatherDisplay:10.37,2013-01-11 19:34:00,
2013-01-11 11:39:00,51.1,41.6,30.23,WSW,248,0.0,0.0,70,0.00,OVC,,0.00,0.0,WeatherDisplay:10.37,2013-01-11 19:39:00,
2013-01-11 11:44:00,51.4,41.6,30.23,WSW,248,0.0,0.0,69,0.00,OVC,,0.00,0.0,WeatherDisplay:10.37,2013-01-11 19:44:00,
2013-01-11 11:49:00,51.8,41.6,30.21,WSW,248,0.0,0.0,68,0.00,OVC,,0.00,0.0,WeatherDisplay:10.37,2013-01-11 19:49:00,
2013-01-11 11:54:00,52.0,41.7,30.21,WSW,248,0.0,0.0,68,0.00,OVC,,0.00,0.0,WeatherDisplay:10.37,2013-01-11 19:54:00,
2013-01-11 11:59:00,52.3,41.7,30.21,WSW,248,0.0,0.0,67,0.00,OVC,,0.00,0.0,WeatherDisplay:10.37,2013-01-11 19:59:00,
2013-01-11 12:05:00,52.3,41.7,30.21,WSW,248,0.0,0.0,67,0.00,OVC,,0.00,0.0,WeatherDisplay:10.37,2013-01-11 20:05:00,
2013-01-11 12:10:00,52.3,41.7,30.20,WSW,248,0.0,0.0,67,0.00,OVC,,0.00,0.0,WeatherDisplay:10.37,2013-01-11 20:10:00,
2013-01-11 12:15:00,52.0,41.4,30.20,WSW,248,0.0,0.0,67,0.00,OVC,,0.00,0.0,WeatherDisplay:10.37,2013-01-11 20:15:00,
2013-01-11 12:20:00,52.0,41.4,30.20,WSW,248,0.0,0.0,67,0.00,OVC,,0.00,0.0,WeatherDisplay:10.37,2013-01-11 20:20:00,
2013-01-11 12:25:00,52.0,41.4,30.20,WSW,248,0.0,0.0,67,0.00,OVC,,0.00,0.0,WeatherDisplay:10.37,2013-01-11 20:25:00,
2013-01-11 12:30:00,52.3,41.7,30.18,WSW,248,0.0,0.0,67,0.00,OVC,,0.00,0.0,WeatherDisplay:10.37,2013-01-11 20:30:00,
2013-01-11 12:35:00,52.2,41.5,30.18,WSW,248,0.0,0.0,67,0.00,OVC,,0.00,0.0,WeatherDisplay:10.37,2013-01-11 20:35:00,
2013-01-11 12:40:00,52.3,41.7,30.18,WSW,248,0.0,0.0,67,0.00,OVC,,0.00,0.0,WeatherDisplay:10.37,2013-01-11 20:40:00,
2013-01-11 12:46:00,52.2,41.5,30.17,WSW,248,0.0,0.0,67,0.00,OVC,,0.00,0.0,WeatherDisplay:10.37,2013-01-11 20:46:00,
2013-01-11 12:51:00,52.2,41.9,30.17,WSW,248,0.0,0.0,68,0.00,OVC,,0.00,0.0,WeatherDisplay:10.37,2013-01-11 20:51:00,
2013-01-11 12:56:00,52.2,41.9,30.17,WSW,248,0.0,0.0,68,0.00,OVC,,0.00,0.0,WeatherDisplay:10.37,2013-01-11 20:56:00,
2013-01-11 13:01:00,52.7,42.4,30.17,WSW,248,0.0,0.0,68,0.00,OVC,,0.00,0.0,WeatherDisplay:10.37,2013-01-11 21:01:00,
2013-01-11 13:07:00,52.7,42.4,30.16,WSW,248,0.0,0.0,68,0.00,OVC,,0.00,0.0,WeatherDisplay:10.37,2013-01-11 21:07:00,
2013-01-11 13:12:00,52.7,42.4,30.16,WSW,248,0.0,0.0,68,0.00,OVC,,0.00,0.0,WeatherDisplay:10.37,2013-01-11 21:12:00,
2013-01-11 13:17:00,52.9,42.6,30.16,WSW,248,0.0,0.0,68,0.00,OVC,,0.00,0.0,WeatherDisplay:10.37,2013-01-11 21:17:00,
2013-01-11 13:22:00,53.1,42.8,30.16,WSW,248,0.0,0.0,68,0.00,OVC,,0.00,0.0,WeatherDisplay:10.37,2013-01-11 21:22:00,
2013-01-11 13:27:00,53.4,43.1,30.16,WSW,248,0.0,0.0,68,0.00,OVC,,0.00,0.0,WeatherDisplay:10.37,2013-01-11 21:27:00,
2013-01-11 13:32:00,53.4,43.1,30.16,WSW,248,0.0,0.0,68,0.00,OVC,,0.00,0.0,WeatherDisplay:10.37,2013-01-11 21:32:00,
2013-01-11 13:37:00,53.8,43.1,30.16,WSW,248,0.0,0.0,67,0.00,OVC,,0.00,0.0,WeatherDisplay:10.37,2013-01-11 21:37:00,
2013-01-11 13:43:00,53.4,41.5,30.16,WSW,248,0.0,0.0,64,0.00,OVC,,0.00,0.0,WeatherDisplay:10.37,2013-01-11 21:43:00,
2013-01-11 13:48:00,53.4,41.5,30.15,WSW,248,0.0,0.0,64,0.00,OVC,,0.00,0.0,WeatherDisplay:10.37,2013-01-11 21:48:00,
2013-01-11 13:53:00,53.4,41.5,30.15,WSW,248,0.0,0.0,64,0.00,OVC,,0.00,0.0,WeatherDisplay:10.37,2013-01-11 21:53:00,
2013-01-11 13:58:00,53.6,42.1,30.15,WSW,248,0.0,0.0,65,0.00,OVC,,0.00,0.0,WeatherDisplay:10.37,2013-01-11 21:58:00,
2013-01-11 14:03:00,53.6,41.7,30.15,WSW,248,0.0,0.0,64,0.00,OVC,,0.00,0.0,WeatherDisplay:10.37,2013-01-11 22:03:00,
2013-01-11 14:08:00,54.1,42.2,30.14,WSW,248,0.0,0.0,64,0.00,OVC,,0.00,0.0,WeatherDisplay:10.37,2013-01-11 22:08:00,
2013-01-11 14:14:00,54.3,42.0,30.14,WSW,248,0.0,0.0,63,0.00,OVC,,0.00,0.0,WeatherDisplay:10.37,2013-01-11 22:14:00,
2013-01-11 14:19:00,54.3,41.6,30.14,WSW,248,0.0,0.0,62,0.00,OVC,,0.00,0.0,WeatherDisplay:10.37,2013-01-11 22:19:00,
2013-01-11 14:24:00,54.3,42.0,30.14,WSW,248,0.0,0.0,63,0.00,OVC,,0.00,0.0,WeatherDisplay:10.37,2013-01-11 22:24:00,
2013-01-11 14:29:00,54.5,42.6,30.15,WSW,248,0.0,0.0,64,0.00,OVC,,0.00,0.0,WeatherDisplay:10.37,2013-01-11 22:29:00,
2013-01-11 14:34:00,54.7,42.7,30.15,WSW,248,0.0,0.0,64,0.00,OVC,,0.00,0.0,WeatherDisplay:10.37,2013-01-11 22:34:00,
2013-01-11 14:39:00,54.9,42.5,30.15,WSW,248,0.0,0.0,63,0.00,OVC,,0.00,0.0,WeatherDisplay:10.37,2013-01-11 22:39:00,
2013-01-11 14:44:00,54.9,42.5,30.15,WSW,248,0.0,0.0,63,0.00,OVC,,0.00,0.0,WeatherDisplay:10.37,2013-01-11 22:44:00,
2013-01-11 14:49:00,54.9,42.1,30.14,WSW,248,0.0,0.0,62,0.00,OVC,,0.00,0.0,WeatherDisplay:10.37,2013-01-11 22:49:00,
2013-01-11 14:54:00,55.0,42.7,30.14,WSW,248,0.0,0.0,63,0.00,OVC,,0.00,0.0,WeatherDisplay:10.37,2013-01-11 22:54:00,
2013-01-11 14:59:00,55.2,42.4,30.14,WSW,248,0.0,0.0,62,0.00,OVC,,0.00,0.0,WeatherDisplay:10.37,2013-01-11 22:59:00,
2013-01-11 15:04:00,55.2,42.8,30.14,WSW,248,0.0,0.0,63,0.00,OVC,,0.00,0.0,WeatherDisplay:10.37,2013-01-11 23:04:00,
2013-01-11 15:09:00,55.0,41.8,30.14,WSW,248,0.0,0.0,61,0.00,OVC,,0.00,0.0,WeatherDisplay:10.37,2013-01-11 23:09:00,
2013-01-11 15:15:00,55.0,42.7,30.14,WSW,248,0.0,0.0,63,0.00,OVC,,0.00,0.0,WeatherDisplay:10.37,2013-01-11 23:15:00,
2013-01-11 15:20:00,55.2,43.2,30.14,WSW,248,0.0,0.0,64,0.00,OVC,,0.00,0.0,WeatherDisplay:10.37,2013-01-11 23:20:00,
2013-01-11 15:25:00,54.9,42.9,30.14,WSW,248,0.0,0.0,64,0.00,OVC,,0.00,0.0,WeatherDisplay:10.37,2013-01-11 23:25:00,
2013-01-11 15:30:00,54.5,43.0,30.14,WSW,248,0.0,0.0,65,0.00,OVC,,0.00,0.0,WeatherDisplay:10.37,2013-01-11 23:30:00,
2013-01-11 15:35:00,54.3,42.8,30.14,WSW,248,0.0,0.0,65,0.00,OVC,,0.00,0.0,WeatherDisplay:10.37,2013-01-11 23:35:00,
2013-01-11 15:40:00,54.1,43.0,30.14,WSW,248,0.0,0.0,66,0.00,OVC,,0.00,0.0,WeatherDisplay:10.37,2013-01-11 23:40:00,
2013-01-11 15:45:00,53.6,42.9,30.14,WSW,248,0.0,0.0,67,0.00,OVC,,0.00,0.0,WeatherDisplay:10.37,2013-01-11 23:45:00,
2013-01-11 15:50:00,53.6,43.3,30.14,WSW,248,0.0,0.0,68,0.00,OVC,,0.00,0.0,WeatherDisplay:10.37,2013-01-11 23:50:00,
2013-01-11 15:55:00,53.2,43.3,30.14,WSW,248,0.0,0.0,69,0.00,OVC,,0.00,0.0,WeatherDisplay:10.37,2013-01-11 23:55:00,
2013-01-11 16:01:00,53.4,43.5,30.14,WSW,248,0.0,0.0,69,0.00,OVC,,0.00,0.0,WeatherDisplay:10.37,2013-01-12 00:01:00,
2013-01-11 16:06:00,53.4,43.9,30.14,WSW,248,0.0,0.0,70,0.00,OVC,,0.00,0.0,WeatherDisplay:10.37,2013-01-12 00:06:00,
2013-01-11 16:11:00,53.4,43.9,30.14,WSW,248,0.0,0.0,70,0.00,OVC,,0.00,0.0,WeatherDisplay:10.37,2013-01-12 00:11:00,
2013-01-11 16:16:00,53.2,43.3,30.14,WSW,248,0.0,0.0,69,0.00,OVC,,0.00,0.0,WeatherDisplay:10.37,2013-01-12 00:16:00,
2013-01-11 16:21:00,53.1,42.8,30.14,WSW,248,0.0,0.0,68,0.00,OVC,,0.00,0.0,WeatherDisplay:10.37,2013-01-12 00:21:00,
2013-01-11 16:26:00,53.1,43.2,30.14,WSW,248,0.0,0.0,69,0.00,OVC,,0.00,0.0,WeatherDisplay:10.37,2013-01-12 00:26:00,
2013-01-11 16:32:00,52.7,42.8,30.14,WSW,248,0.0,0.0,69,0.00,OVC,,0.00,0.0,WeatherDisplay:10.37,2013-01-12 00:32:00,
2013-01-11 16:37:00,52.7,43.2,30.14,WSW,248,0.0,0.0,70,0.00,OVC,,0.00,0.0,WeatherDisplay:10.37,2013-01-12 00:37:00,
2013-01-11 16:42:00,52.3,42.5,30.14,WSW,248,0.0,0.0,69,0.00,OVC,,0.00,0.0,WeatherDisplay:10.37,2013-01-12 00:42:00,
2013-01-11 16:47:00,52.2,42.7,30.13,WSW,248,0.0,0.0,70,0.00,OVC,,0.00,0.0,WeatherDisplay:10.37,2013-01-12 00:47:00,
2013-01-11 16:52:00,52.0,42.9,30.13,WSW,248,0.0,0.0,71,0.00,OVC,,0.00,0.0,WeatherDisplay:10.37,2013-01-12 00:52:00,
2013-01-11 16:57:00,51.6,42.5,30.13,WSW,248,0.0,0.0,71,0.00,OVC,,0.00,0.0,WeatherDisplay:10.37,2013-01-12 00:57:00,
2013-01-11 17:02:00,51.6,42.9,30.13,WSW,248,0.0,0.0,72,0.00,OVC,,0.00,0.0,WeatherDisplay:10.37,2013-01-12 01:02:00,
2013-01-11 17:08:00,51.4,42.7,30.13,WSW,248,0.0,0.0,72,0.00,OVC,,0.00,0.0,WeatherDisplay:10.37,2013-01-12 01:08:00,
2013-01-11 17:13:00,51.1,42.4,30.13,WSW,248,0.0,0.0,72,0.00,OVC,,0.00,0.0,WeatherDisplay:10.37,2013-01-12 01:13:00,
2013-01-11 17:19:00,51.3,42.9,30.13,WSW,248,0.0,0.0,73,0.00,OVC,,0.00,0.0,WeatherDisplay:10.37,2013-01-12 01:19:00,
2013-01-11 17:24:00,50.9,42.6,30.13,WSW,248,0.0,0.0,73,0.00,OVC,,0.00,0.0,WeatherDisplay:10.37,2013-01-12 01:24:00,
2013-01-11 17:29:00,50.7,42.4,30.13,WSW,248,0.0,0.0,73,0.00,OVC,,0.00,0.0,WeatherDisplay:10.37,2013-01-12 01:29:00,
2013-01-11 17:34:00,50.5,42.2,30.13,WSW,248,0.0,0.0,73,0.00,OVC,,0.00,0.0,WeatherDisplay:10.37,2013-01-12 01:34:00,
2013-01-11 17:40:00,50.0,41.7,30.13,WSW,248,0.0,0.0,73,0.00,OVC,,0.00,0.0,WeatherDisplay:10.37,2013-01-12 01:40:00,
2013-01-11 17:45:00,49.8,41.5,30.13,WSW,248,0.0,0.0,73,0.00,CLR,,0.00,0.0,WeatherDisplay:10.37,2013-01-12 01:45:00,
2013-01-11 17:50:00,49.5,41.2,30.13,WSW,248,0.0,0.0,73,0.00,CLR,,0.00,0.0,WeatherDisplay:10.37,2013-01-12 01:50:00,
2013-01-11 17:55:00,49.5,41.5,30.13,WSW,248,0.0,0.0,74,0.00,CLR,,0.00,0.0,WeatherDisplay:10.37,2013-01-12 01:55:00,
2013-01-11 18:00:00,49.3,41.3,30.13,WSW,248,0.0,0.0,74,0.00,CLR,,0.00,0.0,WeatherDisplay:10.37,2013-01-12 02:00:00,
2013-01-11 18:05:00,49.1,41.2,30.13,WSW,248,0.0,0.0,74,0.00,CLR,,0.00,0.0,WeatherDisplay:10.37,2013-01-12 02:05:00,
2013-01-11 18:11:00,48.6,40.6,30.13,WSW,248,0.0,0.0,74,0.00,CLR,,0.00,0.0,WeatherDisplay:10.37,2013-01-12 02:11:00,
2013-01-11 18:16:00,48.6,40.6,30.13,WSW,248,0.0,0.0,74,0.00,CLR,,0.00,0.0,WeatherDisplay:10.37,2013-01-12 02:16:00,
2013-01-11 18:21:00,48.4,40.8,30.13,WSW,248,0.0,0.0,75,0.00,CLR,,0.00,0.0,WeatherDisplay:10.37,2013-01-12 02:21:00,
2013-01-11 18:26:00,48.4,40.8,30.12,WSW,248,0.0,0.0,75,0.00,CLR,,0.00,0.0,WeatherDisplay:10.37,2013-01-12 02:26:00,
2013-01-11 18:31:00,48.2,40.6,30.12,WSW,248,0.0,0.0,75,0.00,CLR,,0.00,0.0,WeatherDisplay:10.37,2013-01-12 02:31:00,
2013-01-11 18:37:00,48.0,40.5,30.12,WSW,248,0.0,0.0,75,0.00,CLR,,0.00,0.0,WeatherDisplay:10.37,2013-01-12 02:37:00,
2013-01-11 18:42:00,48.0,40.5,30.12,WSW,248,0.0,0.0,75,0.00,CLR,,0.00,0.0,WeatherDisplay:10.37,2013-01-12 02:42:00,
2013-01-11 18:47:00,47.8,40.6,30.12,WSW,248,0.0,0.0,76,0.00,CLR,,0.00,0.0,WeatherDisplay:10.37,2013-01-12 02:47:00,
2013-01-11 18:52:00,47.7,40.5,30.12,WSW,248,0.0,0.0,76,0.00,CLR,,0.00,0.0,WeatherDisplay:10.37,2013-01-12 02:52:00,
2013-01-11 18:58:00,47.7,40.8,30.12,WSW,248,0.0,0.0,77,0.00,CLR,,0.00,0.0,WeatherDisplay:10.37,2013-01-12 02:58:00,
2013-01-11 19:03:00,47.3,40.5,30.12,WSW,248,0.0,0.0,77,0.00,CLR,,0.00,0.0,WeatherDisplay:10.37,2013-01-12 03:03:00,
2013-01-11 19:08:00,47.3,40.8,30.12,WSW,248,0.0,0.0,78,0.00,CLR,,0.00,0.0,WeatherDisplay:10.37,2013-01-12 03:08:00,
2013-01-11 19:13:00,47.1,40.6,30.12,WSW,248,0.0,0.0,78,0.00,CLR,,0.00,0.0,WeatherDisplay:10.37,2013-01-12 03:13:00,
2013-01-11 19:18:00,47.1,40.6,30.12,WSW,248,0.0,0.0,78,0.00,CLR,,0.00,0.0,WeatherDisplay:10.37,2013-01-12 03:18:00,
2013-01-11 19:24:00,46.9,40.4,30.12,WSW,248,0.0,0.0,78,0.00,CLR,,0.00,0.0,WeatherDisplay:10.37,2013-01-12 03:24:00,
2013-01-11 19:29:00,46.6,40.1,30.12,WSW,248,0.0,0.0,78,0.00,CLR,,0.00,0.0,WeatherDisplay:10.37,2013-01-12 03:29:00,
2013-01-11 19:34:00,46.4,39.9,30.12,WSW,248,0.0,0.0,78,0.00,CLR,,0.00,0.0,WeatherDisplay:10.37,2013-01-12 03:34:00,
2013-01-11 19:39:00,46.4,40.2,30.12,WSW,248,0.0,0.0,79,0.00,CLR,,0.00,0.0,WeatherDisplay:10.37,2013-01-12 03:39:00,
2013-01-11 19:45:00,46.2,40.1,30.12,WSW,248,0.0,0.0,79,0.00,CLR,,0.00,0.0,WeatherDisplay:10.37,2013-01-12 03:45:00,
2013-01-11 19:50:00,46.2,40.1,30.12,WSW,248,0.0,0.0,79,0.00,CLR,,0.00,0.0,WeatherDisplay:10.37,2013-01-12 03:50:00,
2013-01-11 19:55:00,45.7,39.9,30.12,WSW,248,0.0,0.0,80,0.00,CLR,,0.00,0.0,WeatherDisplay:10.37,2013-01-12 03:55:00,
2013-01-11 20:01:00,45.9,39.7,30.12,WSW,248,0.0,0.0,79,0.00,CLR,,0.00,0.0,WeatherDisplay:10.37,2013-01-12 04:01:00,
2013-01-11 20:06:00,45.5,39.7,30.13,WSW,248,0.0,0.0,80,0.00,CLR,,0.00,0.0,WeatherDisplay:10.37,2013-01-12 04:06:00,
2013-01-11 20:11:00,45.5,39.7,30.13,WSW,248,0.0,0.0,80,0.00,CLR,,0.00,0.0,WeatherDisplay:10.37,2013-01-12 04:11:00,
2013-01-11 20:16:00,45.1,39.3,30.13,WSW,248,0.0,0.0,80,0.00,CLR,,0.00,0.0,WeatherDisplay:10.37,2013-01-12 04:16:00,
2013-01-11 20:21:00,45.1,39.3,30.13,WSW,248,0.0,0.0,80,0.00,CLR,,0.00,0.0,WeatherDisplay:10.37,2013-01-12 04:21:00,
2013-01-11 20:26:00,45.0,39.5,30.13,WSW,248,0.0,0.0,81,0.00,CLR,,0.00,0.0,WeatherDisplay:10.37,2013-01-12 04:26:00,
2013-01-11 20:31:00,45.0,39.5,30.13,WSW,248,0.0,0.0,81,0.00,CLR,,0.00,0.0,WeatherDisplay:10.37,2013-01-12 04:31:00,
2013-01-11 20:36:00,44.8,39.3,30.13,WSW,248,0.0,0.0,81,0.00,CLR,,0.00,0.0,WeatherDisplay:10.37,2013-01-12 04:36:00,
2013-01-11 20:42:00,44.8,39.6,30.13,WSW,248,0.0,0.0,82,0.00,CLR,,0.00,0.0,WeatherDisplay:10.37,2013-01-12 04:42:00,
2013-01-11 20:47:00,44.8,39.9,30.13,WSW,248,0.0,0.0,83,0.00,CLR,,0.00,0.0,WeatherDisplay:10.37,2013-01-12 04:47:00,
2013-01-11 20:52:00,44.4,39.3,30.13,WSW,248,0.0,0.0,82,0.00,CLR,,0.00,0.0,WeatherDisplay:10.37,2013-01-12 04:52:00,
2013-01-11 20:57:00,44.2,39.1,30.13,WSW,248,0.0,0.0,82,0.00,CLR,,0.00,0.0,WeatherDisplay:10.37,2013-01-12 04:57:00,
2013-01-11 21:01:00,44.4,39.3,30.13,WSW,248,0.0,0.0,82,0.00,CLR,,0.00,0.0,WeatherDisplay:10.37,2013-01-12 05:01:00,
2013-01-11 21:02:00,44.2,39.1,30.13,WSW,248,0.0,0.0,82,0.00,CLR,,0.00,0.0,WeatherDisplay:10.37,2013-01-12 05:02:00,
2013-01-11 21:03:00,44.2,39.1,30.13,WSW,248,0.0,0.0,82,0.00,CLR,,0.00,0.0,WeatherDisplay:10.37,2013-01-12 05:03:00,
2013-01-11 21:07:00,44.2,39.1,30.12,WSW,248,0.0,0.0,82,0.00,CLR,,0.00,0.0,WeatherDisplay:10.37,2013-01-12 05:07:00,
2013-01-11 21:12:00,44.1,39.2,30.12,WSW,248,0.0,0.0,83,0.00,CLR,,0.00,0.0,WeatherDisplay:10.37,2013-01-12 05:12:00,
2013-01-11 21:17:00,44.1,39.2,30.12,WSW,248,0.0,0.0,83,0.00,CLR,,0.00,0.0,WeatherDisplay:10.37,2013-01-12 05:17:00,
2013-01-11 21:22:00,44.1,39.2,30.12,WSW,248,0.0,0.0,83,0.00,CLR,,0.00,0.0,WeatherDisplay:10.37,2013-01-12 05:22:00,
2013-01-11 21:27:00,43.9,39.1,30.13,WSW,248,0.0,0.0,83,0.00,CLR,,0.00,0.0,WeatherDisplay:10.37,2013-01-12 05:27:00,
2013-01-11 21:33:00,43.7,38.9,30.13,WSW,248,0.0,0.0,83,0.00,CLR,,0.00,0.0,WeatherDisplay:10.37,2013-01-12 05:33:00,
2013-01-11 21:38:00,43.7,38.9,30.13,WSW,248,0.0,0.0,83,0.00,CLR,,0.00,0.0,WeatherDisplay:10.37,2013-01-12 05:38:00,
2013-01-11 21:43:00,43.5,39.0,30.13,WSW,248,0.0,0.0,84,0.00,CLR,,0.00,0.0,WeatherDisplay:10.37,2013-01-12 05:43:00,
2013-01-11 21:48:00,43.5,38.7,30.12,WSW,248,0.0,0.0,83,0.00,CLR,,0.00,0.0,WeatherDisplay:10.37,2013-01-12 05:48:00,
2013-01-11 21:53:00,43.5,39.0,30.12,WSW,248,0.0,0.0,84,0.00,CLR,,0.00,0.0,WeatherDisplay:10.37,2013-01-12 05:53:00,
2013-01-11 21:58:00,43.5,39.3,30.12,WSW,248,0.0,0.0,85,0.00,CLR,,0.00,0.0,WeatherDisplay:10.37,2013-01-12 05:58:00,
2013-01-11 22:03:00,43.3,38.8,30.12,WSW,248,0.0,0.0,84,0.00,CLR,,0.00,0.0,WeatherDisplay:10.37,2013-01-12 06:03:00,
2013-01-11 22:08:00,43.3,38.8,30.13,WSW,248,0.0,0.0,84,0.00,CLR,,0.00,0.0,WeatherDisplay:10.37,2013-01-12 06:08:00,
2013-01-11 22:13:00,43.3,38.8,30.13,WSW,248,0.0,0.0,84,0.00,CLR,,0.00,0.0,WeatherDisplay:10.37,2013-01-12 06:13:00,
2013-01-11 22:19:00,43.0,38.5,30.13,WSW,248,0.0,0.0,84,0.00,CLR,,0.00,0.0,WeatherDisplay:10.37,2013-01-12 06:19:00,
2013-01-11 22:24:00,42.8,38.3,30.13,WSW,248,0.0,0.0,84,0.00,CLR,,0.00,0.0,WeatherDisplay:10.37,2013-01-12 06:24:00,
2013-01-11 22:29:00,42.8,38.3,30.12,WSW,248,0.0,0.0,84,0.00,CLR,,0.00,0.0,WeatherDisplay:10.37,2013-01-12 06:29:00,
2013-01-11 22:34:00,43.0,38.8,30.12,WSW,248,0.0,0.0,85,0.00,CLR,,0.00,0.0,WeatherDisplay:10.37,2013-01-12 06:34:00,
2013-01-11 22:40:00,42.8,38.6,30.12,WSW,248,0.0,0.0,85,0.00,CLR,,0.00,0.0,WeatherDisplay:10.37,2013-01-12 06:40:00,
2013-01-11 22:45:00,42.8,38.6,30.12,WSW,248,0.0,0.0,85,0.00,CLR,,0.00,0.0,WeatherDisplay:10.37,2013-01-12 06:45:00,
2013-01-11 22:50:00,42.8,38.6,30.14,WSW,248,0.0,0.0,85,0.00,CLR,,0.00,0.0,WeatherDisplay:10.37,2013-01-12 06:50:00,
2013-01-11 22:55:00,43.0,38.8,30.14,WSW,248,0.0,0.0,85,0.00,CLR,,0.00,0.0,WeatherDisplay:10.37,2013-01-12 06:55:00,
2013-01-11 23:00:00,43.0,39.1,30.14,WSW,248,0.0,0.0,86,0.00,CLR,,0.00,0.0,WeatherDisplay:10.37,2013-01-12 07:00:00,
2013-01-11 23:05:00,43.3,39.4,30.14,WSW,248,0.0,0.0,86,0.00,CLR,,0.00,0.0,WeatherDisplay:10.37,2013-01-12 07:05:00,
2013-01-11 23:10:00,43.5,39.6,30.14,WSW,248,0.0,0.0,86,0.00,CLR,,0.00,0.0,WeatherDisplay:10.37,2013-01-12 07:10:00,
2013-01-11 23:15:00,43.9,39.7,30.14,WSW,248,0.0,0.0,85,0.00,CLR,,0.00,0.0,WeatherDisplay:10.37,2013-01-12 07:15:00,
2013-01-11 23:20:00,44.1,39.8,30.14,WSW,248,0.0,0.0,85,0.00,CLR,,0.00,0.0,WeatherDisplay:10.37,2013-01-12 07:20:00,
2013-01-11 23:25:00,44.4,39.9,30.14,WSW,248,0.0,0.0,84,0.00,CLR,,0.00,0.0,WeatherDisplay:10.37,2013-01-12 07:25:00,
2013-01-11 23:30:00,44.4,39.9,30.14,WSW,248,0.0,0.0,84,0.00,CLR,,0.00,0.0,WeatherDisplay:10.37,2013-01-12 07:30:00,
2013-01-11 23:35:00,44.8,39.9,30.14,WSW,248,0.0,0.0,83,0.00,CLR,,0.00,0.0,WeatherDisplay:10.37,2013-01-12 07:35:00,
2013-01-11 23:40:00,44.6,39.8,30.14,WSW,248,0.0,0.0,83,0.00,CLR,,0.00,0.0,WeatherDisplay:10.37,2013-01-12 07:40:00,
2013-01-11 23:46:00,44.4,39.9,30.14,WSW,248,0.0,0.0,84,0.00,CLR,,0.00,0.0,WeatherDisplay:10.37,2013-01-12 07:46:00,
2013-01-11 23:51:00,44.4,39.9,30.14,WSW,248,0.0,0.0,84,0.00,CLR,,0.00,0.0,WeatherDisplay:10.37,2013-01-12 07:51:00,
2013-01-11 23:56:00,44.2,39.4,30.14,WSW,248,0.0,0.0,83,0.00,CLR,,0.00,0.0,WeatherDisplay:10.37,2013-01-12 07:56:00,